sensor_id;sensor_type;location;lat;lon;timestamp;temperature;humidity
65369;HTU21D;51970;53.484;49.488;2022-09-20T00:01:04;17.00;71.58
65369;HTU21D;51970;53.484;49.488;2022-09-20T00:03:31;17.02;71.48
65369;HTU21D;51970;53.484;49.488;2022-09-20T00:05:59;16.99;71.93
65369;HTU21D;51970;53.484;49.488;2022-09-20T00:08:26;16.99;71.55
65369;HTU21D;51970;53.484;49.488;2022-09-20T00:10:57;16.96;70.68
65369;HTU21D;51970;53.484;49.488;2022-09-20T00:13:26;16.94;70.00
65369;HTU21D;51970;53.484;49.488;2022-09-20T00:15:52;16.94;70.23
65369;HTU21D;51970;53.484;49.488;2022-09-20T00:18:18;16.91;70.84
65369;HTU21D;51970;53.484;49.488;2022-09-20T00:20:46;16.88;70.74
65369;HTU21D;51970;53.484;49.488;2022-09-20T00:23:12;16.88;70.51
65369;HTU21D;51970;53.484;49.488;2022-09-20T00:25:38;16.87;70.93
65369;HTU21D;51970;53.484;49.488;2022-09-20T00:28:04;16.85;69.26
65369;HTU21D;51970;53.484;49.488;2022-09-20T00:30:34;16.82;68.88
65369;HTU21D;51970;53.484;49.488;2022-09-20T00:33:00;16.81;68.27
65369;HTU21D;51970;53.484;49.488;2022-09-20T00:35:27;16.82;68.20
65369;HTU21D;51970;53.484;49.488;2022-09-20T00:37:54;16.84;68.31
65369;HTU21D;51970;53.484;49.488;2022-09-20T00:40:22;16.80;68.20
65369;HTU21D;51970;53.484;49.488;2022-09-20T00:42:49;16.78;67.67
65369;HTU21D;51970;53.484;49.488;2022-09-20T00:53:24;16.63;67.81
65369;HTU21D;51970;53.484;49.488;2022-09-20T00:58:21;16.56;69.33
65369;HTU21D;51970;53.484;49.488;2022-09-20T01:00:50;16.49;68.51
65369;HTU21D;51970;53.484;49.488;2022-09-20T01:03:19;16.45;68.79
65369;HTU21D;51970;53.484;49.488;2022-09-20T01:05:50;16.43;67.84
65369;HTU21D;51970;53.484;49.488;2022-09-20T01:08:17;16.40;67.67
65369;HTU21D;51970;53.484;49.488;2022-09-20T01:10:44;16.36;67.52
65369;HTU21D;51970;53.484;49.488;2022-09-20T01:13:10;16.32;67.61
65369;HTU21D;51970;53.484;49.488;2022-09-20T01:15:37;16.28;67.84
65369;HTU21D;51970;53.484;49.488;2022-09-20T01:18:06;16.22;67.80
65369;HTU21D;51970;53.484;49.488;2022-09-20T01:20:38;16.18;68.19
65369;HTU21D;51970;53.484;49.488;2022-09-20T01:29:12;16.07;68.91
65369;HTU21D;51970;53.484;49.488;2022-09-20T01:31:52;16.08;68.76
65369;HTU21D;51970;53.484;49.488;2022-09-20T01:34:30;16.08;68.93
65369;HTU21D;51970;53.484;49.488;2022-09-20T01:37:51;16.11;69.66
65369;HTU21D;51970;53.484;49.488;2022-09-20T01:39:56;16.05;69.36
65369;HTU21D;51970;53.484;49.488;2022-09-20T01:42:32;16.06;69.18
65369;HTU21D;51970;53.484;49.488;2022-09-20T01:48:06;16.02;70.05
65369;HTU21D;51970;53.484;49.488;2022-09-20T02:08:12;15.96;72.61
65369;HTU21D;51970;53.484;49.488;2022-09-20T02:16:42;15.93;71.67
65369;HTU21D;51970;53.484;49.488;2022-09-20T02:19:45;15.93;72.35
65369;HTU21D;51970;53.484;49.488;2022-09-20T02:24:56;15.95;71.78
65369;HTU21D;51970;53.484;49.488;2022-09-20T02:27:29;15.97;72.19
65369;HTU21D;51970;53.484;49.488;2022-09-20T02:38:00;15.99;72.67
65369;HTU21D;51970;53.484;49.488;2022-09-20T02:46:39;15.98;73.87
65369;HTU21D;51970;53.484;49.488;2022-09-20T02:49:13;15.93;75.22
65369;HTU21D;51970;53.484;49.488;2022-09-20T02:51:57;15.95;74.09
65369;HTU21D;51970;53.484;49.488;2022-09-20T02:54:52;15.96;73.34
65369;HTU21D;51970;53.484;49.488;2022-09-20T03:00:18;15.97;73.39
65369;HTU21D;51970;53.484;49.488;2022-09-20T03:11:47;16.03;74.14
65369;HTU21D;51970;53.484;49.488;2022-09-20T03:25:29;16.52;74.71
65369;HTU21D;51970;53.484;49.488;2022-09-20T03:35:42;16.94;72.63
65369;HTU21D;51970;53.484;49.488;2022-09-20T03:41:10;17.16;69.99
65369;HTU21D;51970;53.484;49.488;2022-09-20T03:46:25;17.59;68.97
65369;HTU21D;51970;53.484;49.488;2022-09-20T03:49:09;17.65;68.74
65369;HTU21D;51970;53.484;49.488;2022-09-20T03:51:44;17.59;68.26
65369;HTU21D;51970;53.484;49.488;2022-09-20T04:00:21;17.45;69.12
65369;HTU21D;51970;53.484;49.488;2022-09-20T04:08:50;17.44;69.69
65369;HTU21D;51970;53.484;49.488;2022-09-20T04:17:27;18.00;67.91
65369;HTU21D;51970;53.484;49.488;2022-09-20T04:20:06;18.33;65.71
65369;HTU21D;51970;53.484;49.488;2022-09-20T04:22:37;18.55;65.42
65369;HTU21D;51970;53.484;49.488;2022-09-20T04:25:14;18.51;65.44
65369;HTU21D;51970;53.484;49.488;2022-09-20T04:27:47;18.49;65.46
65369;HTU21D;51970;53.484;49.488;2022-09-20T04:30:21;18.53;64.89
65369;HTU21D;51970;53.484;49.488;2022-09-20T04:33:04;18.50;65.55
65369;HTU21D;51970;53.484;49.488;2022-09-20T04:35:54;18.56;66.36
65369;HTU21D;51970;53.484;49.488;2022-09-20T04:38:40;18.36;68.08
65369;HTU21D;51970;53.484;49.488;2022-09-20T04:55:53;18.05;68.82
65369;HTU21D;51970;53.484;49.488;2022-09-20T05:04:25;17.97;68.89
65369;HTU21D;51970;53.484;49.488;2022-09-20T05:15:49;17.87;65.26
65369;HTU21D;51970;53.484;49.488;2022-09-20T05:29:27;18.02;65.34
65369;HTU21D;51970;53.484;49.488;2022-09-20T05:34:51;17.85;64.20
65369;HTU21D;51970;53.484;49.488;2022-09-20T05:40:28;17.94;64.47
65369;HTU21D;51970;53.484;49.488;2022-09-20T05:48:19;18.03;62.50
65369;HTU21D;51970;53.484;49.488;2022-09-20T05:50:57;18.00;61.25
65369;HTU21D;51970;53.484;49.488;2022-09-20T05:56:32;17.85;63.44
65369;HTU21D;51970;53.484;49.488;2022-09-20T06:02:01;17.93;65.99
65369;HTU21D;51970;53.484;49.488;2022-09-20T06:05:12;17.98;64.92
65369;HTU21D;51970;53.484;49.488;2022-09-20T06:07:49;18.03;65.25
65369;HTU21D;51970;53.484;49.488;2022-09-20T06:16:00;18.15;67.03
65369;HTU21D;51970;53.484;49.488;2022-09-20T06:21:41;18.08;65.72
65369;HTU21D;51970;53.484;49.488;2022-09-20T06:27:20;18.29;64.07
65369;HTU21D;51970;53.484;49.488;2022-09-20T06:29:56;18.48;63.34
65369;HTU21D;51970;53.484;49.488;2022-09-20T06:32:23;18.57;63.10
65369;HTU21D;51970;53.484;49.488;2022-09-20T06:34:49;18.70;59.99
65369;HTU21D;51970;53.484;49.488;2022-09-20T06:37:47;18.95;59.96
65369;HTU21D;51970;53.484;49.488;2022-09-20T06:40:41;19.10;58.70
65369;HTU21D;51970;53.484;49.488;2022-09-20T06:43:27;19.08;58.30
65369;HTU21D;51970;53.484;49.488;2022-09-20T06:45:56;19.12;58.28
65369;HTU21D;51970;53.484;49.488;2022-09-20T06:48:22;19.10;57.95
65369;HTU21D;51970;53.484;49.488;2022-09-20T06:50:50;19.00;56.89
65369;HTU21D;51970;53.484;49.488;2022-09-20T06:53:26;18.93;57.59
65369;HTU21D;51970;53.484;49.488;2022-09-20T06:55:52;18.98;56.07
65369;HTU21D;51970;53.484;49.488;2022-09-20T06:58:18;19.03;56.35
65369;HTU21D;51970;53.484;49.488;2022-09-20T07:00:45;19.16;56.45
65369;HTU21D;51970;53.484;49.488;2022-09-20T07:03:11;19.23;56.00
65369;HTU21D;51970;53.484;49.488;2022-09-20T07:05:39;19.09;55.93
65369;HTU21D;51970;53.484;49.488;2022-09-20T07:08:06;19.21;56.93
65369;HTU21D;51970;53.484;49.488;2022-09-20T07:10:32;19.22;56.62
65369;HTU21D;51970;53.484;49.488;2022-09-20T07:12:59;19.13;56.59
65369;HTU21D;51970;53.484;49.488;2022-09-20T07:15:27;19.03;56.13
65369;HTU21D;51970;53.484;49.488;2022-09-20T07:17:53;18.85;55.28
65369;HTU21D;51970;53.484;49.488;2022-09-20T07:20:20;18.68;55.80
65369;HTU21D;51970;53.484;49.488;2022-09-20T07:22:47;18.74;54.75
65369;HTU21D;51970;53.484;49.488;2022-09-20T07:25:13;18.89;54.75
65369;HTU21D;51970;53.484;49.488;2022-09-20T07:27:39;19.09;53.67
65369;HTU21D;51970;53.484;49.488;2022-09-20T07:30:06;19.15;53.44
65369;HTU21D;51970;53.484;49.488;2022-09-20T07:32:32;19.30;52.19
65369;HTU21D;51970;53.484;49.488;2022-09-20T07:34:58;19.26;50.66
65369;HTU21D;51970;53.484;49.488;2022-09-20T07:37:26;19.42;50.98
65369;HTU21D;51970;53.484;49.488;2022-09-20T07:39:52;19.55;48.28
65369;HTU21D;51970;53.484;49.488;2022-09-20T07:42:18;19.66;49.63
65369;HTU21D;51970;53.484;49.488;2022-09-20T07:44:43;19.66;49.52
65369;HTU21D;51970;53.484;49.488;2022-09-20T07:47:10;19.79;49.21
65369;HTU21D;51970;53.484;49.488;2022-09-20T07:49:36;20.03;47.03
65369;HTU21D;51970;53.484;49.488;2022-09-20T07:52:02;20.09;46.19
65369;HTU21D;51970;53.484;49.488;2022-09-20T07:54:29;20.13;47.86
65369;HTU21D;51970;53.484;49.488;2022-09-20T07:56:55;20.35;47.30
65369;HTU21D;51970;53.484;49.488;2022-09-20T07:59:21;20.49;46.85
65369;HTU21D;51970;53.484;49.488;2022-09-20T08:01:47;20.47;48.43
65369;HTU21D;51970;53.484;49.488;2022-09-20T08:04:13;20.29;44.71
65369;HTU21D;51970;53.484;49.488;2022-09-20T08:06:43;20.10;47.92
65369;HTU21D;51970;53.484;49.488;2022-09-20T08:09:12;20.13;47.45
65369;HTU21D;51970;53.484;49.488;2022-09-20T08:11:40;20.19;47.98
65369;HTU21D;51970;53.484;49.488;2022-09-20T08:14:11;20.26;45.96
65369;HTU21D;51970;53.484;49.488;2022-09-20T08:16:39;20.25;47.67
65369;HTU21D;51970;53.484;49.488;2022-09-20T08:19:06;20.45;47.31
65369;HTU21D;51970;53.484;49.488;2022-09-20T08:21:34;20.48;45.73
65369;HTU21D;51970;53.484;49.488;2022-09-20T08:24:00;20.55;47.31
65369;HTU21D;51970;53.484;49.488;2022-09-20T08:26:28;20.35;47.43
65369;HTU21D;51970;53.484;49.488;2022-09-20T08:28:57;20.26;49.34
65369;HTU21D;51970;53.484;49.488;2022-09-20T08:31:26;20.37;48.99
65369;HTU21D;51970;53.484;49.488;2022-09-20T08:33:53;20.48;49.49
65369;HTU21D;51970;53.484;49.488;2022-09-20T08:36:21;20.60;50.29
65369;HTU21D;51970;53.484;49.488;2022-09-20T08:38:49;20.68;49.22
65369;HTU21D;51970;53.484;49.488;2022-09-20T08:41:28;20.47;50.24
65369;HTU21D;51970;53.484;49.488;2022-09-20T08:44:05;20.32;51.19
65369;HTU21D;51970;53.484;49.488;2022-09-20T08:46:35;20.31;50.27
65369;HTU21D;51970;53.484;49.488;2022-09-20T08:49:04;20.35;51.47
65369;HTU21D;51970;53.484;49.488;2022-09-20T08:51:36;20.41;51.37
65369;HTU21D;51970;53.484;49.488;2022-09-20T08:54:05;20.62;50.53
65369;HTU21D;51970;53.484;49.488;2022-09-20T08:56:36;20.74;50.57
65369;HTU21D;51970;53.484;49.488;2022-09-20T08:59:03;20.77;50.85
65369;HTU21D;51970;53.484;49.488;2022-09-20T09:01:30;20.75;50.73
65369;HTU21D;51970;53.484;49.488;2022-09-20T09:04:09;20.65;51.08
65369;HTU21D;51970;53.484;49.488;2022-09-20T09:06:38;20.61;52.20
65369;HTU21D;51970;53.484;49.488;2022-09-20T09:09:04;20.72;50.99
65369;HTU21D;51970;53.484;49.488;2022-09-20T09:11:31;20.77;51.98
65369;HTU21D;51970;53.484;49.488;2022-09-20T09:14:06;20.85;51.70
65369;HTU21D;51970;53.484;49.488;2022-09-20T09:16:55;20.86;51.66
65369;HTU21D;51970;53.484;49.488;2022-09-20T09:19:27;20.93;50.64
65369;HTU21D;51970;53.484;49.488;2022-09-20T09:22:01;21.09;50.92
65369;HTU21D;51970;53.484;49.488;2022-09-20T09:24:28;21.20;50.31
65369;HTU21D;51970;53.484;49.488;2022-09-20T09:27:25;20.99;51.60
65369;HTU21D;51970;53.484;49.488;2022-09-20T09:29:53;20.94;52.39
65369;HTU21D;51970;53.484;49.488;2022-09-20T09:32:30;21.09;51.33
65369;HTU21D;51970;53.484;49.488;2022-09-20T09:35:28;21.16;51.28
65369;HTU21D;51970;53.484;49.488;2022-09-20T09:38:00;21.28;52.55
65369;HTU21D;51970;53.484;49.488;2022-09-20T09:40:26;21.32;51.38
65369;HTU21D;51970;53.484;49.488;2022-09-20T09:42:55;21.22;51.37
65369;HTU21D;51970;53.484;49.488;2022-09-20T09:45:32;20.99;51.34
65369;HTU21D;51970;53.484;49.488;2022-09-20T09:48:25;20.94;52.36
65369;HTU21D;51970;53.484;49.488;2022-09-20T09:51:13;20.75;52.67
65369;HTU21D;51970;53.484;49.488;2022-09-20T09:53:41;20.55;53.73
65369;HTU21D;51970;53.484;49.488;2022-09-20T10:04:36;20.24;54.84
65369;HTU21D;51970;53.484;49.488;2022-09-20T10:07:34;20.09;54.78
65369;HTU21D;51970;53.484;49.488;2022-09-20T10:15:32;20.34;55.08
65369;HTU21D;51970;53.484;49.488;2022-09-20T10:18:22;20.39;53.89
65369;HTU21D;51970;53.484;49.488;2022-09-20T10:24:14;20.47;54.82
65369;HTU21D;51970;53.484;49.488;2022-09-20T10:26:52;20.37;54.97
65369;HTU21D;51970;53.484;49.488;2022-09-20T10:40:58;19.40;58.00
65369;HTU21D;51970;53.484;49.488;2022-09-20T10:44:28;19.33;59.51
65369;HTU21D;51970;53.484;49.488;2022-09-20T10:49:41;19.11;59.38
65369;HTU21D;51970;53.484;49.488;2022-09-20T10:52:31;19.01;59.48
65369;HTU21D;51970;53.484;49.488;2022-09-20T10:58:06;19.11;59.74
65369;HTU21D;51970;53.484;49.488;2022-09-20T11:06:13;19.44;59.30
65369;HTU21D;51970;53.484;49.488;2022-09-20T11:08:41;19.44;59.09
65369;HTU21D;51970;53.484;49.488;2022-09-20T11:11:14;19.39;59.44
65369;HTU21D;51970;53.484;49.488;2022-09-20T11:13:57;19.24;60.30
65369;HTU21D;51970;53.484;49.488;2022-09-20T11:16:36;19.13;61.29
65369;HTU21D;51970;53.484;49.488;2022-09-20T11:24:48;19.12;61.85
65369;HTU21D;51970;53.484;49.488;2022-09-20T11:27:32;19.02;61.96
65369;HTU21D;51970;53.484;49.488;2022-09-20T11:30:05;18.94;62.37
65369;HTU21D;51970;53.484;49.488;2022-09-20T11:35:33;18.74;62.72
65369;HTU21D;51970;53.484;49.488;2022-09-20T11:38:22;18.66;63.16
65369;HTU21D;51970;53.484;49.488;2022-09-20T11:43:38;18.50;63.03
65369;HTU21D;51970;53.484;49.488;2022-09-20T11:46:12;18.50;63.46
65369;HTU21D;51970;53.484;49.488;2022-09-20T11:48:44;18.47;63.78
65369;HTU21D;51970;53.484;49.488;2022-09-20T11:51:18;18.58;63.96
65369;HTU21D;51970;53.484;49.488;2022-09-20T11:56:36;18.86;62.50
65369;HTU21D;51970;53.484;49.488;2022-09-20T11:59:26;18.97;62.47
65369;HTU21D;51970;53.484;49.488;2022-09-20T12:01:55;19.03;61.48
65369;HTU21D;51970;53.484;49.488;2022-09-20T12:04:25;19.07;61.50
65369;HTU21D;51970;53.484;49.488;2022-09-20T12:07:04;19.12;61.41
65369;HTU21D;51970;53.484;49.488;2022-09-20T12:09:37;19.28;60.60
65369;HTU21D;51970;53.484;49.488;2022-09-20T12:12:26;19.37;59.96
65369;HTU21D;51970;53.484;49.488;2022-09-20T12:14:55;19.31;60.87
65369;HTU21D;51970;53.484;49.488;2022-09-20T12:28:48;18.84;62.92
65369;HTU21D;51970;53.484;49.488;2022-09-20T12:36:38;18.82;62.91
65369;HTU21D;51970;53.484;49.488;2022-09-20T12:41:53;18.87;62.72
65369;HTU21D;51970;53.484;49.488;2022-09-20T12:47:19;18.86;63.17
65369;HTU21D;51970;53.484;49.488;2022-09-20T12:52:37;18.80;63.06
65369;HTU21D;51970;53.484;49.488;2022-09-20T12:57:55;18.73;63.66
65369;HTU21D;51970;53.484;49.488;2022-09-20T13:00:35;18.77;63.52
65369;HTU21D;51970;53.484;49.488;2022-09-20T13:05:43;18.69;64.10
65369;HTU21D;51970;53.484;49.488;2022-09-20T13:08:19;18.62;64.59
65369;HTU21D;51970;53.484;49.488;2022-09-20T13:10:49;18.49;64.79
65369;HTU21D;51970;53.484;49.488;2022-09-20T13:13:31;18.44;65.68
65369;HTU21D;51970;53.484;49.488;2022-09-20T13:15:59;18.48;65.95
65369;HTU21D;51970;53.484;49.488;2022-09-20T13:18:26;18.56;65.24
65369;HTU21D;51970;53.484;49.488;2022-09-20T13:20:55;18.66;65.08
65369;HTU21D;51970;53.484;49.488;2022-09-20T13:23:26;18.86;64.99
65369;HTU21D;51970;53.484;49.488;2022-09-20T13:25:54;19.13;64.23
65369;HTU21D;51970;53.484;49.488;2022-09-20T13:28:33;19.32;63.63
65369;HTU21D;51970;53.484;49.488;2022-09-20T13:31:24;19.36;63.41
65369;HTU21D;51970;53.484;49.488;2022-09-20T13:33:51;19.25;63.81
65369;HTU21D;51970;53.484;49.488;2022-09-20T13:36:25;19.15;63.99
65369;HTU21D;51970;53.484;49.488;2022-09-20T13:38:55;19.02;64.47
65369;HTU21D;51970;53.484;49.488;2022-09-20T13:41:21;18.95;64.89
65369;HTU21D;51970;53.484;49.488;2022-09-20T13:43:48;18.83;65.34
65369;HTU21D;51970;53.484;49.488;2022-09-20T13:46:28;18.71;65.90
65369;HTU21D;51970;53.484;49.488;2022-09-20T13:49:15;18.55;66.58
65369;HTU21D;51970;53.484;49.488;2022-09-20T13:51:42;18.47;66.61
65369;HTU21D;51970;53.484;49.488;2022-09-20T13:54:29;18.41;66.62
65369;HTU21D;51970;53.484;49.488;2022-09-20T13:57:01;18.34;66.47
65369;HTU21D;51970;53.484;49.488;2022-09-20T13:59:34;18.23;66.60
65369;HTU21D;51970;53.484;49.488;2022-09-20T14:02:01;18.20;66.54
65369;HTU21D;51970;53.484;49.488;2022-09-20T14:04:29;18.14;66.54
65369;HTU21D;51970;53.484;49.488;2022-09-20T14:06:57;18.09;66.92
65369;HTU21D;51970;53.484;49.488;2022-09-20T14:09:36;18.04;67.11
65369;HTU21D;51970;53.484;49.488;2022-09-20T14:12:04;18.00;67.51
65369;HTU21D;51970;53.484;49.488;2022-09-20T14:14:32;17.90;67.51
65369;HTU21D;51970;53.484;49.488;2022-09-20T14:17:00;17.81;68.10
65369;HTU21D;51970;53.484;49.488;2022-09-20T14:19:32;17.73;68.16
65369;HTU21D;51970;53.484;49.488;2022-09-20T14:22:02;17.68;67.78
65369;HTU21D;51970;53.484;49.488;2022-09-20T14:24:33;17.65;68.48
65369;HTU21D;51970;53.484;49.488;2022-09-20T14:27:11;17.60;68.23
65369;HTU21D;51970;53.484;49.488;2022-09-20T14:29:41;17.52;68.39
65369;HTU21D;51970;53.484;49.488;2022-09-20T14:35:00;17.47;69.36
65369;HTU21D;51970;53.484;49.488;2022-09-20T14:40:13;17.37;69.12
65369;HTU21D;51970;53.484;49.488;2022-09-20T14:42:43;17.33;69.85
65369;HTU21D;51970;53.484;49.488;2022-09-20T14:47:51;17.24;69.90
65369;HTU21D;51970;53.484;49.488;2022-09-20T14:50:30;17.22;70.23
65369;HTU21D;51970;53.484;49.488;2022-09-20T14:55:36;17.18;70.26
65369;HTU21D;51970;53.484;49.488;2022-09-20T14:58:09;17.16;70.62
65369;HTU21D;51970;53.484;49.488;2022-09-20T15:00:57;17.10;71.06
65369;HTU21D;51970;53.484;49.488;2022-09-20T15:03:36;17.09;71.64
65369;HTU21D;51970;53.484;49.488;2022-09-20T15:06:09;17.08;71.67
65369;HTU21D;51970;53.484;49.488;2022-09-20T15:08:35;17.04;71.58
65369;HTU21D;51970;53.484;49.488;2022-09-20T15:11:02;17.03;71.89
65369;HTU21D;51970;53.484;49.488;2022-09-20T15:13:28;16.99;72.01
65369;HTU21D;51970;53.484;49.488;2022-09-20T15:15:54;16.94;71.87
65369;HTU21D;51970;53.484;49.488;2022-09-20T15:18:22;16.95;72.29
65369;HTU21D;51970;53.484;49.488;2022-09-20T15:20:50;16.95;72.30
65369;HTU21D;51970;53.484;49.488;2022-09-20T15:23:16;16.95;72.38
65369;HTU21D;51970;53.484;49.488;2022-09-20T15:25:42;16.93;72.71
65369;HTU21D;51970;53.484;49.488;2022-09-20T15:28:15;16.92;72.63
65369;HTU21D;51970;53.484;49.488;2022-09-20T15:30:47;16.91;72.41
65369;HTU21D;51970;53.484;49.488;2022-09-20T15:33:15;16.90;72.74
65369;HTU21D;51970;53.484;49.488;2022-09-20T15:35:42;16.86;72.86
65369;HTU21D;51970;53.484;49.488;2022-09-20T15:38:08;16.84;73.52
65369;HTU21D;51970;53.484;49.488;2022-09-20T15:40:44;16.84;74.18
65369;HTU21D;51970;53.484;49.488;2022-09-20T15:43:18;16.82;74.15
65369;HTU21D;51970;53.484;49.488;2022-09-20T15:45:51;16.78;74.54
65369;HTU21D;51970;53.484;49.488;2022-09-20T15:48:20;16.74;74.88
65369;HTU21D;51970;53.484;49.488;2022-09-20T15:51:06;16.70;75.15
65369;HTU21D;51970;53.484;49.488;2022-09-20T15:53:45;16.64;75.18
65369;HTU21D;51970;53.484;49.488;2022-09-20T15:56:22;16.64;75.48
65369;HTU21D;51970;53.484;49.488;2022-09-20T15:59:00;16.65;76.02
65369;HTU21D;51970;53.484;49.488;2022-09-20T16:01:31;16.64;76.00
65369;HTU21D;51970;53.484;49.488;2022-09-20T16:03:58;16.63;76.08
65369;HTU21D;51970;53.484;49.488;2022-09-20T16:06:24;16.63;76.28
65369;HTU21D;51970;53.484;49.488;2022-09-20T16:08:51;16.65;76.66
65369;HTU21D;51970;53.484;49.488;2022-09-20T16:11:19;16.64;76.86
65369;HTU21D;51970;53.484;49.488;2022-09-20T16:13:51;16.63;77.52
65369;HTU21D;51970;53.484;49.488;2022-09-20T16:16:17;16.60;78.08
65369;HTU21D;51970;53.484;49.488;2022-09-20T16:18:44;16.58;78.78
65369;HTU21D;51970;53.484;49.488;2022-09-20T16:21:28;16.54;79.61
65369;HTU21D;51970;53.484;49.488;2022-09-20T16:23:55;16.47;79.95
65369;HTU21D;51970;53.484;49.488;2022-09-20T16:26:24;16.43;79.95
65369;HTU21D;51970;53.484;49.488;2022-09-20T16:28:51;16.37;80.16
65369;HTU21D;51970;53.484;49.488;2022-09-20T16:31:40;16.34;80.16
65369;HTU21D;51970;53.484;49.488;2022-09-20T16:36:43;16.32;80.40
65369;HTU21D;51970;53.484;49.488;2022-09-20T16:39:11;16.31;80.22
65369;HTU21D;51970;53.484;49.488;2022-09-20T16:41:37;16.33;80.07
65369;HTU21D;51970;53.484;49.488;2022-09-20T16:44:07;16.34;80.59
65369;HTU21D;51970;53.484;49.488;2022-09-20T16:46:33;16.35;80.24
65369;HTU21D;51970;53.484;49.488;2022-09-20T16:49:06;16.33;80.73
65369;HTU21D;51970;53.484;49.488;2022-09-20T16:51:35;16.31;81.01
65369;HTU21D;51970;53.484;49.488;2022-09-20T16:54:04;16.32;80.75
65369;HTU21D;51970;53.484;49.488;2022-09-20T16:56:33;16.29;80.82
65369;HTU21D;51970;53.484;49.488;2022-09-20T16:59:00;16.29;80.73
65369;HTU21D;51970;53.484;49.488;2022-09-20T17:01:28;16.28;80.92
65369;HTU21D;51970;53.484;49.488;2022-09-20T17:03:54;16.27;80.71
65369;HTU21D;51970;53.484;49.488;2022-09-20T17:06:22;16.26;80.81
65369;HTU21D;51970;53.484;49.488;2022-09-20T17:08:51;16.24;80.81
65369;HTU21D;51970;53.484;49.488;2022-09-20T17:11:20;16.20;81.23
65369;HTU21D;51970;53.484;49.488;2022-09-20T17:13:51;16.15;81.95
65369;HTU21D;51970;53.484;49.488;2022-09-20T17:16:26;16.15;81.62
65369;HTU21D;51970;53.484;49.488;2022-09-20T17:18:54;16.13;81.76
65369;HTU21D;51970;53.484;49.488;2022-09-20T17:21:20;16.08;82.36
65369;HTU21D;51970;53.484;49.488;2022-09-20T17:23:49;16.07;82.52
65369;HTU21D;51970;53.484;49.488;2022-09-20T17:26:24;16.05;82.19
65369;HTU21D;51970;53.484;49.488;2022-09-20T17:28:52;16.07;82.33
65369;HTU21D;51970;53.484;49.488;2022-09-20T17:31:21;16.03;82.42
65369;HTU21D;51970;53.484;49.488;2022-09-20T17:33:49;15.99;82.77
65369;HTU21D;51970;53.484;49.488;2022-09-20T17:36:17;15.96;83.14
65369;HTU21D;51970;53.484;49.488;2022-09-20T17:38:45;15.89;83.26
65369;HTU21D;51970;53.484;49.488;2022-09-20T17:41:13;15.83;83.52
65369;HTU21D;51970;53.484;49.488;2022-09-20T17:43:41;15.81;83.62
65369;HTU21D;51970;53.484;49.488;2022-09-20T17:46:17;15.77;83.25
65369;HTU21D;51970;53.484;49.488;2022-09-20T17:48:53;15.82;83.16
65369;HTU21D;51970;53.484;49.488;2022-09-20T17:51:22;15.82;83.40
65369;HTU21D;51970;53.484;49.488;2022-09-20T17:53:49;15.83;83.47
65369;HTU21D;51970;53.484;49.488;2022-09-20T17:56:15;15.85;83.78
65369;HTU21D;51970;53.484;49.488;2022-09-20T17:58:42;15.83;83.95
65369;HTU21D;51970;53.484;49.488;2022-09-20T18:01:11;15.81;83.82
65369;HTU21D;51970;53.484;49.488;2022-09-20T18:03:41;15.75;83.62
65369;HTU21D;51970;53.484;49.488;2022-09-20T18:06:14;15.77;83.52
65369;HTU21D;51970;53.484;49.488;2022-09-20T18:08:45;15.78;83.76
65369;HTU21D;51970;53.484;49.488;2022-09-20T18:11:12;15.78;83.81
65369;HTU21D;51970;53.484;49.488;2022-09-20T18:13:38;15.76;84.22
65369;HTU21D;51970;53.484;49.488;2022-09-20T18:16:08;15.74;84.14
65369;HTU21D;51970;53.484;49.488;2022-09-20T18:18:36;15.71;84.15
65369;HTU21D;51970;53.484;49.488;2022-09-20T18:21:10;15.67;84.32
65369;HTU21D;51970;53.484;49.488;2022-09-20T18:23:37;15.65;84.61
65369;HTU21D;51970;53.484;49.488;2022-09-20T18:26:08;15.63;84.77
65369;HTU21D;51970;53.484;49.488;2022-09-20T18:33:58;15.49;84.78
65369;HTU21D;51970;53.484;49.488;2022-09-20T18:36:27;15.46;84.83
65369;HTU21D;51970;53.484;49.488;2022-09-20T18:38:55;15.44;84.80
65369;HTU21D;51970;53.484;49.488;2022-09-20T18:41:33;15.46;84.74
65369;HTU21D;51970;53.484;49.488;2022-09-20T18:44:01;15.44;84.59
65369;HTU21D;51970;53.484;49.488;2022-09-20T18:46:29;15.42;84.78
65369;HTU21D;51970;53.484;49.488;2022-09-20T18:49:00;15.37;84.85
65369;HTU21D;51970;53.484;49.488;2022-09-20T18:51:29;15.34;84.73
65369;HTU21D;51970;53.484;49.488;2022-09-20T18:53:56;15.37;84.64
65369;HTU21D;51970;53.484;49.488;2022-09-20T18:58:53;15.27;84.77
65369;HTU21D;51970;53.484;49.488;2022-09-20T19:07:35;15.15;85.34
65369;HTU21D;51970;53.484;49.488;2022-09-20T19:20:59;15.14;85.35
65369;HTU21D;51970;53.484;49.488;2022-09-20T19:26:22;15.15;85.76
65369;HTU21D;51970;53.484;49.488;2022-09-20T19:28:49;15.16;85.77
65369;HTU21D;51970;53.484;49.488;2022-09-20T19:31:24;15.22;85.64
65369;HTU21D;51970;53.484;49.488;2022-09-20T19:33:52;15.25;85.67
65369;HTU21D;51970;53.484;49.488;2022-09-20T19:36:24;15.29;85.48
65369;HTU21D;51970;53.484;49.488;2022-09-20T19:39:00;15.32;85.59
65369;HTU21D;51970;53.484;49.488;2022-09-20T19:41:53;15.33;85.52
65369;HTU21D;51970;53.484;49.488;2022-09-20T19:50:00;15.39;85.23
65369;HTU21D;51970;53.484;49.488;2022-09-20T19:52:28;15.38;85.22
65369;HTU21D;51970;53.484;49.488;2022-09-20T19:54:54;15.38;85.26
65369;HTU21D;51970;53.484;49.488;2022-09-20T19:57:22;15.37;85.21
65369;HTU21D;51970;53.484;49.488;2022-09-20T19:59:54;15.37;85.15
65369;HTU21D;51970;53.484;49.488;2022-09-20T20:02:21;15.40;85.10
65369;HTU21D;51970;53.484;49.488;2022-09-20T20:04:47;15.39;85.25
65369;HTU21D;51970;53.484;49.488;2022-09-20T20:10:16;15.34;85.58
65369;HTU21D;51970;53.484;49.488;2022-09-20T20:16:00;15.29;86.29
65369;HTU21D;51970;53.484;49.488;2022-09-20T20:21:51;15.29;85.96
65369;HTU21D;51970;53.484;49.488;2022-09-20T20:27:04;15.25;86.03
65369;HTU21D;51970;53.484;49.488;2022-09-20T20:29:30;15.14;86.21
65369;HTU21D;51970;53.484;49.488;2022-09-20T20:31:56;15.04;86.83
65369;HTU21D;51970;53.484;49.488;2022-09-20T20:34:22;14.92;88.05
65369;HTU21D;51970;53.484;49.488;2022-09-20T20:36:49;14.83;88.91
65369;HTU21D;51970;53.484;49.488;2022-09-20T20:39:15;14.73;90.41
65369;HTU21D;51970;53.484;49.488;2022-09-20T20:41:41;14.66;91.53
65369;HTU21D;51970;53.484;49.488;2022-09-20T20:44:07;14.58;92.04
65369;HTU21D;51970;53.484;49.488;2022-09-20T20:46:34;14.60;92.43
65369;HTU21D;51970;53.484;49.488;2022-09-20T20:49:03;14.62;92.76
65369;HTU21D;51970;53.484;49.488;2022-09-20T20:51:29;14.65;92.92
65369;HTU21D;51970;53.484;49.488;2022-09-20T20:53:57;14.65;92.95
65369;HTU21D;51970;53.484;49.488;2022-09-20T20:56:28;14.67;92.92
65369;HTU21D;51970;53.484;49.488;2022-09-20T20:58:57;14.66;92.99